This is the latest recevied weather packets stored in our database for station/object LZ1NAG-10. If no packets are shown the sender has not sent any weather packets the latest 1 day(s).
| Time | Temp. | Humidity | Pressure | Rain* | Wind** | Luminosity | Snow |
|---|---|---|---|---|---|---|---|
| 1777825047 | 6.67° C | 54% | 1023.5 hPa | - | - | - | - |
| 1777824147 | 6.67° C | 54% | 1023.5 hPa | - | - | - | - |
| 1777823247 | 7.22° C | 54% | 1023.4 hPa | - | - | - | - |
| 1777822347 | 7.22° C | 54% | 1023.6 hPa | - | - | - | - |
| 1777821447 | 7.78° C | 54% | 1023.4 hPa | - | - | - | - |
| 1777820547 | 8.33° C | 53% | 1023.6 hPa | - | - | - | - |
| 1777819647 | 9.44° C | 53% | 1023.7 hPa | - | - | - | - |
| 1777818746 | 8.89° C | 54% | 1023.9 hPa | - | - | - | - |
| 1777817846 | 9.44° C | 53% | 1023.8 hPa | - | - | - | - |
| 1777816946 | 10° C | 53% | 1023.9 hPa | - | - | - | - |
| 1777816045 | 10° C | 53% | 1023.8 hPa | - | - | - | - |
| 1777815145 | 10.56° C | 52% | 1024 hPa | - | - | - | - |
| 1777814245 | 10° C | 53% | 1024 hPa | - | - | - | - |
| 1777813344 | 10.56° C | 53% | 1024.4 hPa | - | - | - | - |
| 1777812441 | 11.67° C | 52% | 1024.1 hPa | - | - | - | - |
| 1777811541 | 15.56° C | 48% | 1024 hPa | - | - | - | - |
| 1777810641 | 8.89° C | 54% | 1024.5 hPa | - | - | - | - |
| 1777809741 | 12.22° C | 51% | 1024.2 hPa | - | - | - | - |
| 1777808841 | 12.78° C | 51% | 1025.6 hPa | - | - | - | - |
| 1777807941 | 14.44° C | 49% | 1024.2 hPa | - | - | - | - |
| 1777807040 | 11.11° C | 51% | 1024.5 hPa | - | - | - | - |
| 1777806143 | 10° C | 53% | 1025.3 hPa | - | - | - | - |
| 1777805240 | 10.56° C | 53% | 1024.4 hPa | - | - | - | - |
| 1777804340 | 13.89° C | 49% | 1024.4 hPa | - | - | - | - |
| 1777803440 | 9.44° C | 53% | 1025 hPa | - | - | - | - |
* Rain since midnight (hover to see other rain measurements)
** Current wind speed in m/s (hover to see current wind gust speed)